Hauptseite
METAR-TAF:

METAR-TAF

Flughäfen :

Nancy, Frankreich

Breite: 48-41N, Länge: 006-13E, Höhe: 225 m

Beobachtung

Neuester Wetterbericht von vor 19 Minuten, um 17:30 UTC
Wind 5 kt aus Süd/Südwest, variierte zwischen Süd/Südost und West/Südwest
Temperatur -1°C
Luftfeuchtigkeit 86%
Luftdruck 1025 hPa
Sichtweite: 6000 m
Geschlossene Wolkendecke in der Höhe von 700 ft

METAR: LFSN 301730Z AUTO 20005KT 160V240 6000 OVC007 M01/M03 Q1025

Zeit: 18:49 (17:49 UTC)


TAF: fehlend

Wetterbeobachtungen und Prognosen von mehr als 4000 Flughäfen (METAR und TAF Bericht).

Die verfügbaren Stationen werden durch gelbe und rote Markierungen auf der Karte dargestellt.

Führen Sie die Maus auf sie, um den Namen der Station zu sehen.

Darauf klicken, um die Beobachtung von Wetterbeobachtungen und Prognosen zu sehen.

Um die Karte zu ändern : klicken Sie auf den grünen Tasten mit einem schwarzen Kreuz Zum Vergrößern, auf den grünen Button mit einem Gedankenstrich zu verkleinern, oder auf die grünen Pfeile für benachbarte Karten.


METAR-TAF: